createdAt,value
2018-02-15T00:02:11.385Z,18.77
2018-02-15T00:04:38.931Z,19.48
2018-02-15T00:07:06.416Z,19.75
2018-02-15T00:09:33.892Z,20.83
2018-02-15T00:12:01.374Z,21.62
2018-02-15T00:14:28.841Z,21.02
2018-02-15T00:16:56.344Z,20.98
2018-02-15T00:19:23.817Z,19.35
2018-02-15T00:21:51.405Z,20.00
2018-02-15T00:24:18.877Z,20.88
2018-02-15T00:26:46.346Z,20.58
2018-02-15T00:29:13.847Z,20.58
2018-02-15T00:31:41.332Z,20.73
2018-02-15T00:34:08.810Z,21.23
2018-02-15T00:36:36.277Z,22.17
2018-02-15T00:39:03.754Z,22.13
2018-02-15T00:41:31.231Z,19.40
2018-02-15T00:43:58.741Z,19.73
2018-02-15T00:46:26.213Z,18.00
2018-02-15T00:48:54.234Z,18.20
2018-02-15T00:51:21.793Z,18.85
2018-02-15T00:53:49.373Z,17.73
2018-02-15T00:56:16.841Z,19.08
2018-02-15T00:58:44.340Z,19.37
2018-02-15T01:01:11.814Z,19.65
2018-02-15T01:03:39.300Z,19.55
2018-02-15T01:06:06.777Z,18.48
2018-02-15T01:08:34.269Z,17.33
2018-02-15T01:11:01.737Z,17.03
2018-02-15T01:13:29.238Z,18.10
2018-02-15T01:15:56.710Z,18.73
2018-02-15T01:18:25.001Z,17.67
2018-02-15T01:20:52.466Z,16.42
2018-02-15T01:23:19.947Z,17.60
2018-02-15T01:25:47.461Z,17.02
2018-02-15T01:28:15.041Z,17.08
2018-02-15T01:30:43.344Z,17.08
2018-02-15T01:33:10.823Z,16.83
2018-02-15T01:35:38.337Z,15.95
2018-02-15T01:38:05.805Z,16.15
2018-02-15T01:40:33.373Z,16.00
2018-02-15T01:43:00.846Z,17.75
2018-02-15T01:45:28.321Z,17.12
2018-02-15T01:47:55.820Z,17.55
2018-02-15T01:50:24.817Z,16.53
2018-02-15T01:52:52.321Z,17.15
2018-02-15T01:55:19.792Z,17.43
2018-02-15T01:57:47.277Z,16.62
2018-02-15T02:00:14.763Z,16.40
2018-02-15T02:02:42.241Z,17.20
2018-02-15T02:05:09.713Z,16.50
2018-02-15T02:07:37.183Z,16.77
2018-02-15T02:10:04.649Z,15.87
2018-02-15T02:12:32.117Z,16.90
2018-02-15T02:15:00.383Z,18.07
2018-02-15T02:17:27.853Z,16.30
2018-02-15T02:19:55.322Z,18.23
2018-02-15T02:22:22.862Z,16.98
2018-02-15T02:24:51.105Z,18.03
2018-02-15T02:27:18.569Z,17.23
2018-02-15T02:29:46.042Z,17.67
2018-02-15T02:32:13.565Z,16.33
2018-02-15T02:34:41.035Z,16.70
2018-02-15T02:37:08.511Z,16.40
2018-02-15T02:39:35.985Z,17.02
2018-02-15T02:42:03.481Z,18.92
2018-02-15T02:44:30.945Z,17.90
2018-02-15T02:46:58.418Z,17.95
2018-02-15T02:49:25.881Z,16.13
2018-02-15T02:51:53.715Z,18.77
2018-02-15T02:54:21.207Z,18.30
2018-02-15T02:56:48.678Z,18.30
2018-02-15T02:59:16.161Z,18.10
2018-02-15T03:01:43.637Z,17.87
2018-02-15T03:04:11.102Z,18.20
2018-02-15T03:06:38.609Z,18.13
2018-02-15T03:09:06.083Z,15.97
2018-02-15T03:11:34.313Z,17.40
2018-02-15T03:14:01.869Z,18.43
2018-02-15T03:16:29.462Z,17.67
2018-02-15T03:18:56.941Z,17.47
2018-02-15T03:21:24.725Z,18.60
2018-02-15T03:23:52.204Z,17.20
2018-02-15T03:26:19.682Z,18.13
2018-02-15T03:28:47.167Z,19.17
2018-02-15T03:31:14.630Z,33.17
2018-02-15T03:33:42.099Z,22.67
2018-02-15T03:36:09.609Z,21.63
2018-02-15T03:38:37.093Z,19.87
2018-02-15T03:41:04.553Z,22.33
2018-02-15T03:43:32.023Z,21.07
2018-02-15T03:45:59.542Z,21.17
2018-02-15T03:48:27.010Z,22.03
2018-02-15T03:50:55.186Z,21.37
2018-02-15T03:53:22.878Z,21.97
2018-02-15T03:55:50.343Z,25.17
2018-02-15T03:58:17.872Z,23.30
2018-02-15T04:00:45.345Z,23.07
2018-02-15T04:03:12.837Z,21.90
2018-02-15T04:05:40.303Z,23.07
2018-02-15T04:08:07.804Z,22.77
2018-02-15T04:10:36.106Z,22.73
2018-02-15T04:13:03.561Z,22.33
2018-02-15T04:15:31.067Z,20.40
2018-02-15T04:17:58.533Z,23.07
2018-02-15T04:20:25.999Z,22.33
2018-02-15T04:22:53.882Z,23.60
2018-02-15T04:25:21.341Z,23.83
2018-02-15T04:27:49.598Z,23.50
2018-02-15T04:30:17.069Z,24.20
2018-02-15T04:32:44.561Z,24.50
2018-02-15T04:35:12.074Z,25.07
2018-02-15T04:37:39.538Z,27.30
2018-02-15T04:40:07.007Z,28.40
2018-02-15T04:42:34.471Z,28.40
2018-02-15T04:45:01.953Z,26.87
2018-02-15T04:47:29.453Z,28.47
2018-02-15T04:49:56.954Z,28.50
2018-02-15T04:52:25.010Z,26.97
2018-02-15T04:54:52.515Z,28.40
2018-02-15T04:57:19.980Z,26.57
2018-02-15T04:59:47.473Z,26.27
2018-02-15T05:02:14.958Z,27.07
2018-02-15T05:04:42.513Z,26.37
2018-02-15T05:07:10.068Z,25.67
2018-02-15T05:09:37.555Z,26.07
2018-02-15T05:12:05.787Z,26.03
2018-02-15T05:14:33.251Z,25.30
2018-02-15T05:17:00.713Z,25.90
2018-02-15T05:19:28.948Z,25.33
2018-02-15T05:21:56.463Z,26.03
2018-02-15T05:24:23.933Z,25.53
2018-02-15T05:26:51.512Z,25.67
2018-02-15T05:29:18.976Z,26.80
2018-02-15T05:31:46.441Z,27.07
2018-02-15T05:34:13.909Z,27.87
2018-02-15T05:36:42.149Z,28.00
2018-02-15T05:39:09.622Z,27.07
2018-02-15T05:41:37.103Z,26.63
2018-02-15T05:44:04.565Z,25.67
2018-02-15T05:46:32.028Z,26.83
2018-02-15T05:49:00.277Z,26.57
2018-02-15T05:51:27.784Z,27.37
2018-02-15T05:53:55.269Z,27.03
2018-02-15T05:56:22.877Z,26.33
2018-02-15T05:58:50.359Z,26.97
2018-02-15T06:01:18.606Z,26.60
2018-02-15T06:03:46.086Z,25.93
2018-02-15T06:06:13.573Z,27.00
2018-02-15T06:08:41.057Z,28.23
2018-02-15T06:11:08.537Z,26.20
2018-02-15T06:13:36.171Z,27.53
2018-02-15T06:16:04.403Z,26.83
2018-02-15T06:18:31.912Z,27.73
2018-02-15T06:20:59.389Z,26.17
2018-02-15T06:23:26.865Z,29.23
2018-02-15T06:25:54.665Z,27.30
2018-02-15T06:28:22.185Z,28.43
2018-02-15T06:30:50.442Z,30.20
2018-02-15T06:33:17.910Z,29.90
2018-02-15T06:35:45.405Z,28.13
2018-02-15T06:38:12.877Z,27.63
2018-02-15T06:40:40.345Z,27.53
2018-02-15T06:43:07.842Z,28.20
2018-02-15T06:45:35.325Z,27.00
2018-02-15T06:48:02.791Z,27.10
2018-02-15T06:50:30.259Z,26.37
2018-02-15T06:52:57.726Z,26.77
2018-02-15T06:55:25.967Z,26.73
2018-02-15T06:57:54.043Z,26.17
2018-02-15T07:00:21.543Z,26.20
2018-02-15T07:02:49.014Z,26.00
2018-02-15T07:05:16.509Z,26.33
2018-02-15T07:07:44.107Z,26.60
2018-02-15T07:10:12.390Z,26.73
2018-02-15T07:12:39.973Z,26.10
2018-02-15T07:15:07.853Z,26.77
2018-02-15T07:17:35.351Z,26.73
2018-02-15T07:20:02.835Z,25.83
2018-02-15T07:22:30.317Z,26.13
2018-02-15T07:24:57.817Z,25.47
2018-02-15T07:27:25.290Z,27.23
2018-02-15T07:29:52.973Z,26.40
2018-02-15T07:32:20.617Z,26.90
2018-02-15T07:34:48.129Z,26.67
2018-02-15T07:37:15.693Z,27.10
2018-02-15T07:39:43.975Z,29.97
2018-02-15T07:42:11.528Z,27.10
2018-02-15T07:44:38.994Z,25.60
2018-02-15T07:47:06.691Z,26.37
2018-02-15T07:49:34.150Z,26.63
2018-02-15T07:52:01.761Z,27.27
2018-02-15T07:54:29.240Z,25.03
2018-02-15T07:56:56.702Z,26.23
2018-02-15T07:59:25.000Z,25.80
2018-02-15T08:01:52.509Z,25.93
2018-02-15T08:04:19.973Z,24.60
2018-02-15T08:06:47.444Z,23.73
2018-02-15T08:09:14.945Z,25.23
2018-02-15T08:11:42.433Z,25.00
2018-02-15T08:14:09.928Z,25.07
2018-02-15T08:16:37.505Z,25.40
2018-02-15T08:19:05.010Z,23.97
2018-02-15T08:21:32.487Z,24.43
2018-02-15T08:23:59.954Z,25.33
2018-02-15T08:26:27.409Z,24.97
2018-02-15T08:28:54.939Z,25.90
2018-02-15T08:31:22.398Z,25.47
2018-02-15T08:33:49.897Z,27.00
2018-02-15T08:36:17.356Z,24.90
2018-02-15T08:38:44.857Z,25.50
2018-02-15T08:41:12.461Z,23.77
2018-02-15T08:43:39.933Z,24.90
2018-02-15T08:46:07.406Z,23.50
2018-02-15T08:48:34.858Z,24.30
2018-02-15T08:51:02.317Z,24.63
2018-02-15T08:53:29.774Z,24.70
2018-02-15T08:55:57.228Z,23.37
2018-02-15T08:58:25.382Z,23.73
2018-02-15T09:00:54.190Z,22.47
2018-02-15T09:03:22.426Z,24.00
2018-02-15T09:05:49.930Z,24.13
2018-02-15T09:08:17.381Z,22.47
2018-02-15T09:10:44.894Z,22.37
2018-02-15T09:13:12.379Z,23.13
2018-02-15T09:15:39.858Z,22.17
2018-02-15T09:18:07.310Z,22.00
2018-02-15T09:20:34.777Z,21.53
2018-02-15T09:23:03.081Z,22.43
2018-02-15T09:25:30.598Z,21.17
2018-02-15T09:27:58.057Z,21.70
2018-02-15T09:30:25.526Z,21.83
2018-02-15T09:32:52.996Z,20.40
2018-02-15T09:35:21.222Z,21.23
2018-02-15T09:37:48.723Z,20.83
2018-02-15T09:40:16.205Z,21.60
2018-02-15T09:42:43.688Z,20.13
2018-02-15T09:45:11.198Z,21.93
2018-02-15T09:47:38.646Z,19.53
2018-02-15T09:50:06.111Z,20.47
2018-02-15T09:52:33.570Z,21.00
2018-02-15T09:55:01.811Z,19.77
2018-02-15T09:57:29.292Z,19.57
2018-02-15T09:59:56.763Z,20.90
2018-02-15T10:02:25.065Z,20.77
2018-02-15T10:04:52.517Z,19.97
2018-02-15T10:07:19.978Z,19.03
2018-02-15T10:09:48.203Z,19.93
2018-02-15T10:12:15.716Z,20.27
2018-02-15T10:14:43.202Z,20.47
2018-02-15T10:17:10.679Z,19.63
2018-02-15T10:19:38.133Z,21.30
2018-02-15T10:22:05.645Z,19.37
2018-02-15T10:24:33.122Z,20.43
2018-02-15T10:27:00.608Z,20.50
2018-02-15T10:29:28.095Z,20.07
2018-02-15T10:31:55.575Z,19.03
2018-02-15T10:34:23.415Z,20.53
2018-02-15T10:36:51.662Z,19.23
2018-02-15T10:39:19.134Z,21.00
2018-02-15T10:41:46.650Z,19.07
2018-02-15T10:44:14.112Z,20.43
2018-02-15T10:46:41.570Z,19.30
2018-02-15T10:49:09.079Z,20.93
2018-02-15T10:51:36.545Z,20.03
2018-02-15T10:54:04.002Z,18.70
2018-02-15T10:56:32.243Z,18.40
2018-02-15T10:58:59.704Z,19.10
2018-02-15T11:01:32.846Z,18.40
2018-02-15T11:04:04.289Z,17.73
2018-02-15T11:06:31.755Z,18.40
2018-02-15T11:08:59.995Z,18.40
2018-02-15T11:11:27.478Z,19.20
2018-02-15T11:13:54.971Z,16.20
2018-02-15T11:16:22.545Z,17.90
2018-02-15T11:18:51.525Z,18.23
2018-02-15T11:21:18.989Z,19.50
2018-02-15T11:23:46.522Z,16.87
2018-02-15T11:26:13.978Z,16.87
2018-02-15T11:28:41.485Z,16.57
2018-02-15T11:31:08.946Z,16.30
2018-02-15T11:33:36.414Z,15.83
2018-02-15T11:36:03.895Z,16.93
2018-02-15T11:38:31.353Z,15.63
2018-02-15T11:40:59.609Z,15.20
2018-02-15T11:43:27.097Z,14.90
2018-02-15T11:45:55.279Z,15.57
2018-02-15T11:48:22.922Z,13.53
2018-02-15T11:50:51.182Z,15.13
2018-02-15T11:53:18.645Z,13.80
2018-02-15T11:55:46.106Z,14.53
2018-02-15T11:58:13.577Z,13.53
2018-02-15T12:00:41.034Z,13.80
2018-02-15T12:03:09.299Z,13.53
2018-02-15T12:05:36.758Z,12.97
2018-02-15T12:08:04.253Z,13.40
2018-02-15T12:10:31.719Z,13.70
2018-02-15T12:12:59.232Z,13.53
2018-02-15T12:15:26.706Z,12.77
2018-02-15T12:17:54.877Z,13.83
2018-02-15T12:20:22.383Z,11.77
2018-02-15T12:22:49.866Z,11.63
2018-02-15T12:25:17.326Z,11.80
2018-02-15T12:27:44.825Z,12.30
2018-02-15T12:30:12.286Z,11.87
2018-02-15T12:32:39.742Z,11.70
2018-02-15T12:35:07.991Z,10.43
2018-02-15T12:37:35.469Z,11.10
2018-02-15T12:40:02.953Z,10.97
2018-02-15T12:42:30.407Z,11.80
2018-02-15T12:44:58.664Z,11.00
2018-02-15T12:47:26.144Z,11.33
2018-02-15T12:49:54.071Z,10.87
2018-02-15T12:52:22.289Z,11.83
2018-02-15T12:54:49.806Z,10.93
2018-02-15T12:57:17.829Z,11.90
2018-02-15T12:59:45.385Z,10.40
2018-02-15T13:02:12.849Z,11.30
2018-02-15T13:04:40.352Z,10.90
2018-02-15T13:07:07.829Z,10.63
2018-02-15T13:09:35.323Z,10.80
2018-02-15T13:12:02.791Z,11.07
2018-02-15T13:14:30.278Z,10.07
2018-02-15T13:16:57.766Z,10.47
2018-02-15T13:19:37.222Z,9.37
2018-02-15T13:22:04.677Z,9.37
2018-02-15T13:24:32.185Z,10.27
2018-02-15T13:26:59.641Z,9.53
2018-02-15T13:29:27.154Z,9.73
2018-02-15T13:31:55.579Z,9.63
2018-02-15T13:34:23.394Z,10.70
2018-02-15T13:36:51.619Z,10.13
2018-02-15T13:39:19.122Z,10.03
2018-02-15T13:41:46.600Z,9.73
2018-02-15T13:44:14.088Z,9.80
2018-02-15T13:46:41.555Z,10.03
2018-02-15T13:49:09.058Z,10.00
2018-02-15T13:51:36.539Z,10.73
2018-02-15T13:54:04.015Z,10.23
2018-02-15T13:56:31.502Z,9.97
2018-02-15T13:58:58.982Z,10.80
2018-02-15T14:01:26.476Z,12.17
2018-02-15T14:03:54.762Z,11.37
2018-02-15T14:06:22.233Z,10.87
2018-02-15T14:08:49.723Z,10.57
2018-02-15T14:11:17.179Z,11.53
2018-02-15T14:13:44.681Z,11.13
2018-02-15T14:16:12.170Z,11.87
2018-02-15T14:18:39.757Z,11.07
2018-02-15T14:21:07.214Z,10.97
2018-02-15T14:23:34.711Z,10.50
2018-02-15T14:26:02.167Z,11.37
2018-02-15T14:28:29.677Z,10.70
2018-02-15T14:30:57.158Z,12.07
2018-02-15T14:33:25.324Z,11.07
2018-02-15T14:35:53.004Z,11.60
2018-02-15T14:38:20.463Z,12.03
2018-02-15T14:40:48.682Z,12.43
2018-02-15T14:43:16.147Z,11.97
2018-02-15T14:45:44.633Z,11.70
2018-02-15T14:48:13.685Z,13.07
2018-02-15T14:50:41.181Z,12.77
2018-02-15T14:53:08.744Z,11.93
2018-02-15T14:55:36.962Z,12.63
2018-02-15T14:58:04.475Z,12.43
2018-02-15T15:00:32.222Z,12.73
2018-02-15T15:02:59.743Z,14.53
2018-02-15T15:05:27.209Z,12.10
2018-02-15T15:07:54.818Z,12.10
2018-02-15T15:10:22.282Z,11.87
2018-02-15T15:12:49.770Z,12.20
2018-02-15T15:15:17.328Z,12.10
2018-02-15T15:17:44.790Z,13.37
2018-02-15T15:20:13.034Z,12.40
2018-02-15T15:22:40.591Z,12.40
2018-02-15T15:25:08.055Z,12.93
2018-02-15T15:27:35.513Z,12.40
2018-02-15T15:30:02.966Z,12.47
2018-02-15T15:32:30.450Z,12.20
2018-02-15T15:34:57.929Z,13.33
2018-02-15T15:37:25.415Z,13.90
2018-02-15T15:39:52.907Z,13.73
2018-02-15T15:42:20.359Z,14.57
2018-02-15T15:44:47.858Z,14.53
2018-02-15T15:47:15.431Z,15.43
2018-02-15T15:49:42.914Z,15.73
2018-02-15T15:52:10.397Z,15.67
2018-02-15T15:54:37.922Z,16.93
2018-02-15T15:57:06.171Z,19.47
2018-02-15T15:59:33.658Z,19.17
2018-02-15T16:02:01.151Z,17.97
2018-02-15T16:04:28.661Z,20.10
2018-02-15T16:06:56.882Z,20.50
2018-02-15T16:09:24.405Z,21.30
2018-02-15T16:11:52.683Z,22.10
2018-02-15T16:14:20.182Z,23.13
2018-02-15T16:16:47.646Z,23.47
2018-02-15T16:19:15.143Z,23.83
2018-02-15T16:21:42.632Z,26.10
2018-02-15T16:24:10.115Z,28.63
2018-02-15T16:26:37.577Z,26.03
2018-02-15T16:29:05.040Z,28.10
2018-02-15T16:31:32.555Z,30.47
2018-02-15T16:34:00.019Z,31.37
2018-02-15T16:36:27.490Z,31.87
2018-02-15T16:38:54.955Z,30.87
2018-02-15T16:41:23.274Z,32.47
2018-02-15T16:43:51.044Z,32.17
2018-02-15T16:46:18.571Z,34.33
2018-02-15T16:48:46.034Z,37.87
2018-02-15T16:51:13.495Z,38.03
2018-02-15T16:53:40.964Z,37.17
2018-02-15T16:56:09.377Z,42.97
2018-02-15T16:58:36.885Z,36.13
2018-02-15T17:01:04.342Z,38.80
2018-02-15T17:03:31.820Z,37.53
2018-02-15T17:06:00.808Z,36.43
2018-02-15T17:08:29.079Z,39.00
2018-02-15T17:10:56.983Z,38.73
2018-02-15T17:13:24.472Z,41.70
2018-02-15T17:15:52.801Z,37.23
2018-02-15T17:18:21.681Z,38.13
2018-02-15T17:20:49.405Z,37.23
2018-02-15T17:23:17.187Z,38.37
2018-02-15T17:25:44.690Z,56.28
2018-02-15T17:28:12.211Z,41.53
2018-02-15T17:30:39.790Z,41.63
2018-02-15T17:33:07.246Z,42.73
2018-02-15T17:35:34.724Z,39.57
2018-02-15T17:38:02.238Z,41.83
2018-02-15T17:40:29.828Z,42.13
2018-02-15T17:42:57.292Z,42.03
2018-02-15T17:45:24.759Z,43.10
2018-02-15T17:47:52.273Z,43.70
2018-02-15T17:50:19.847Z,44.77
2018-02-15T17:52:47.307Z,45.13
2018-02-15T17:55:14.772Z,42.07
2018-02-15T17:57:42.295Z,43.80
2018-02-15T18:00:09.759Z,43.23
2018-02-15T18:02:37.278Z,44.83
2018-02-15T18:05:04.754Z,42.70
2018-02-15T18:07:32.321Z,40.90
2018-02-15T18:09:59.796Z,41.10
2018-02-15T18:12:27.283Z,41.33
2018-02-15T18:14:54.771Z,41.37
2018-02-15T18:17:22.238Z,43.23
2018-02-15T18:19:49.732Z,44.80
2018-02-15T18:22:17.198Z,42.57
2018-02-15T18:24:44.690Z,40.43
2018-02-15T18:27:12.147Z,44.87
2018-02-15T18:29:39.611Z,40.03
2018-02-15T18:32:07.134Z,41.83
2018-02-15T18:34:34.598Z,42.77
2018-02-15T18:37:02.094Z,46.20
2018-02-15T18:39:29.585Z,43.87
2018-02-15T18:41:57.049Z,43.03
2018-02-15T18:44:24.530Z,49.00
2018-02-15T18:46:52.186Z,43.90
2018-02-15T18:49:19.709Z,51.40
2018-02-15T18:51:47.163Z,46.83
2018-02-15T18:54:14.639Z,44.93
2018-02-15T18:56:42.100Z,49.83
2018-02-15T18:59:10.378Z,51.53
2018-02-15T19:01:37.830Z,49.87
2018-02-15T19:04:05.313Z,49.57
2018-02-15T19:06:32.770Z,44.43
2018-02-15T19:09:00.993Z,46.73
2018-02-15T19:11:28.450Z,48.30
2018-02-15T19:13:55.910Z,46.27
2018-02-15T19:16:23.385Z,49.40
2018-02-15T19:18:52.329Z,49.03
2018-02-15T19:21:19.793Z,47.83
2018-02-15T19:23:47.255Z,47.33
2018-02-15T19:26:15.486Z,49.87
2018-02-15T19:28:43.710Z,52.10
2018-02-15T19:31:11.179Z,53.40
2018-02-15T19:33:38.673Z,49.40
2018-02-15T19:36:06.143Z,50.03
2018-02-15T19:38:33.597Z,47.10
2018-02-15T19:41:01.066Z,52.30
2018-02-15T19:43:29.303Z,47.70
2018-02-15T19:45:56.956Z,51.73
2018-02-15T19:48:24.626Z,51.57
2018-02-15T19:50:52.604Z,49.63
2018-02-15T19:53:21.655Z,51.70
2018-02-15T19:55:49.339Z,54.03
2018-02-15T19:58:17.740Z,50.40
2018-02-15T20:00:45.343Z,53.53
2018-02-15T20:03:12.851Z,50.67
2018-02-15T20:05:40.422Z,50.87
2018-02-15T20:08:07.934Z,50.83
2018-02-15T20:10:35.507Z,53.83
2018-02-15T20:13:02.993Z,51.20
2018-02-15T20:15:37.094Z,54.03
2018-02-15T20:18:04.744Z,51.37
2018-02-15T20:20:33.172Z,50.87
2018-02-15T20:23:00.853Z,56.47
2018-02-15T20:25:29.302Z,53.73
2018-02-15T20:28:02.598Z,55.67
2018-02-15T20:30:30.058Z,52.03
2018-02-15T20:32:58.310Z,52.57
2018-02-15T20:35:25.790Z,52.07
2018-02-15T20:37:58.946Z,53.60
2018-02-15T20:40:32.005Z,49.67
2018-02-15T20:42:59.502Z,56.60
2018-02-15T20:45:26.994Z,52.03
2018-02-15T20:47:54.451Z,50.27
2018-02-15T20:50:28.514Z,51.67
2018-02-15T20:53:02.465Z,50.73
2018-02-15T20:55:36.430Z,52.73
2018-02-15T20:58:03.949Z,51.13
2018-02-15T21:00:31.415Z,51.77
2018-02-15T21:02:59.059Z,49.53
2018-02-15T21:05:26.750Z,52.13
2018-02-15T21:07:54.298Z,48.77
2018-02-15T21:10:22.685Z,45.27
2018-02-15T21:12:50.214Z,47.10
2018-02-15T21:15:18.464Z,46.33
2018-02-15T21:17:45.929Z,46.30
2018-02-15T21:20:13.446Z,45.03
2018-02-15T21:22:40.961Z,47.17
2018-02-15T21:25:09.212Z,48.73
2018-02-15T21:27:36.670Z,47.73
2018-02-15T21:30:04.176Z,50.20
2018-02-15T21:32:31.626Z,50.13
2018-02-15T21:34:59.094Z,52.43
2018-02-15T21:37:26.629Z,52.73
2018-02-15T21:39:54.084Z,51.27
2018-02-15T21:42:22.397Z,49.27
2018-02-15T21:44:49.848Z,50.57
2018-02-15T21:47:17.315Z,51.70
2018-02-15T21:49:45.558Z,51.63
2018-02-15T21:52:13.020Z,51.43
2018-02-15T21:54:40.577Z,50.43
2018-02-15T21:57:08.805Z,52.20
2018-02-15T21:59:36.314Z,48.63
2018-02-15T22:02:03.774Z,46.23
2018-02-15T22:04:31.234Z,49.90
2018-02-15T22:06:58.751Z,49.67
2018-02-15T22:09:26.209Z,49.00
2018-02-15T22:11:53.673Z,49.07
2018-02-15T22:14:21.141Z,51.60
2018-02-15T22:16:49.361Z,47.33
2018-02-15T22:19:16.881Z,50.67
2018-02-15T22:21:44.358Z,48.07
2018-02-15T22:24:11.830Z,50.43
2018-02-15T22:26:39.290Z,47.47
2018-02-15T22:29:06.742Z,53.47
2018-02-15T22:31:35.018Z,51.20
2018-02-15T22:34:02.474Z,49.93
2018-02-15T22:36:29.964Z,49.73
2018-02-15T22:38:57.447Z,48.70
2018-02-15T22:41:24.913Z,50.73
2018-02-15T22:43:52.418Z,50.10
2018-02-15T22:46:19.889Z,51.70
2018-02-15T22:48:47.346Z,49.67
2018-02-15T22:51:14.813Z,50.80
2018-02-15T22:53:42.271Z,48.87
2018-02-15T22:56:09.824Z,49.53
2018-02-15T22:58:37.296Z,46.63
2018-02-15T23:01:04.783Z,42.60
2018-02-15T23:03:32.237Z,42.20
2018-02-15T23:05:59.701Z,42.47
2018-02-15T23:08:27.232Z,43.50
2018-02-15T23:10:55.525Z,47.40
2018-02-15T23:13:22.986Z,45.37
2018-02-15T23:15:50.958Z,47.97
2018-02-15T23:18:18.414Z,47.67
2018-02-15T23:20:45.901Z,46.13
2018-02-15T23:23:13.357Z,46.60
2018-02-15T23:25:40.813Z,45.97
2018-02-15T23:28:08.282Z,47.20
2018-02-15T23:30:35.743Z,49.10
2018-02-15T23:33:03.299Z,47.97
2018-02-15T23:35:30.758Z,50.93
2018-02-15T23:37:58.257Z,45.77
2018-02-15T23:40:25.741Z,53.13
2018-02-15T23:42:53.205Z,52.90
2018-02-15T23:47:54.045Z,46.43
2018-02-15T23:50:21.511Z,44.60
2018-02-15T23:52:49.021Z,46.27
2018-02-15T23:55:16.485Z,45.70
2018-02-15T23:57:43.952Z,47.57
